Latest Weather Observations for Parawa West

IDS60801

Issued at 9:41 pm CST Thursday 22 August 2019 (issued every 10 minutes, with the page automatically refreshed every 10 minutes)

About weather observations | Map of weather stations | Latest weather observations for SA | Other Formats
Station Details ID: 023875 Name: SECOND VALLEY FOREST AWS Lat: -35.57 Lon: 138.29 Height: 341.0 m
Data from the previous 72 hours. | See also: Recent months at Parawa West
Date/Time
CST
Temp
°C
App
Temp
°C
Dew
Point
°C
Rel
Hum
%
Delta-T
°C
Wind Press
QNH
hPa
Press
MSL
hPa
Rain since
9am
mm
Dir  Spd
km/h
Gust
km/h
Spd
kts
Gust
kts
22/09:30pm 8.7 6.5 5.4 80 1.5 E 6 6 3 3 1028.0 1028.3 0.0
22/09:00pm 8.7 7.0 6.0 83 1.2 S 4 6 2 3 1028.1 1028.4 0.0
22/08:30pm 8.7 6.6 6.0 83 1.2 ESE 6 9 3 5 1028.1 1028.4 0.0
22/08:00pm 9.0 6.9 5.7 80 1.5 E 6 11 3 6 1028.0 1028.3 0.0
22/07:30pm 8.9 7.3 6.5 85 1.1 SSE 4 6 2 3 1028.1 1028.4 0.0
22/07:00pm 9.0 7.0 6.3 83 1.3 SSE 6 9 3 5 1028.1 1028.4 0.0
22/06:30pm 9.1 6.8 5.8 80 1.5 SSE 7 15 4 8 1028.0 1028.3 0.0
22/06:00pm 9.1 6.9 6.2 82 1.4 SE 7 11 4 6 1027.9 1028.2 0.0
22/05:30pm 9.3 7.2 6.7 84 1.2 SSE 7 11 4 6 1027.9 1028.2 0.0
22/05:00pm 9.3 6.6 7.4 88 0.9 SSE 11 15 6 8 1027.9 1028.2 0.0
22/04:30pm 9.8 6.9 6.7 81 1.5 SSE 11 15 6 8 1027.9 1028.2 0.0
22/04:00pm 9.9 6.5 5.7 75 2.0 S 13 20 7 11 1028.0 1028.3 0.0
22/03:30pm 10.1 6.7 5.7 74 2.0 S 13 20 7 11 1028.1 1028.4 0.0
22/03:00pm 10.4 6.6 5.6 72 2.2 SSW 15 22 8 12 1028.2 1028.6 0.0
22/02:30pm 10.7 6.7 6.8 77 1.9 S 17 20 9 11 1028.2 1028.6 0.0
22/02:00pm 10.8 7.6 6.7 76 2.0 SSW 13 22 7 12 1028.3 1028.7 0.0
22/01:30pm 10.7 6.7 6.5 75 2.0 SSE 17 22 9 12 1028.4 1028.8 0.0
22/01:00pm 10.8 6.7 6.2 73 2.2 SSW 17 22 9 12 1028.6 1029.0 0.0
22/12:30pm 10.8 6.4 6.7 76 2.0 S 19 26 10 14 1028.9 1029.3 0.0
22/12:00pm 10.8 7.2 6.9 77 1.9 S 15 22 8 12 1029.1 1029.5 0.0
22/11:30am 10.6 6.2 6.4 75 2.0 S 19 28 10 15 1029.3 1029.7 0.0
22/11:00am 10.5 6.5 6.6 77 1.9 S 17 26 9 14 1029.3 1029.7 0.0
22/10:30am 10.5 7.1 7.6 82 1.4 SSW 15 22 8 12 1029.3 1029.7 0.0
22/10:00am 10.7 7.1 6.8 77 1.9 SSW 15 22 8 12 1029.2 1029.6 0.0
22/09:30am 9.9 6.1 7.7 86 1.1 SSW 17 26 9 14 1029.1 1029.5 0.0
22/09:00am 10.1 7.2 8.0 87 1.0 SSW 13 19 7 10 1028.8 1029.2 0.0
22/08:30am 10.0 7.1 8.3 89 0.8 SSW 13 19 7 10 1028.5 1028.9 0.0
22/08:00am 9.6 6.8 8.5 93 0.5 SSW 13 17 7 9 1028.3 1028.7 0.0
22/07:30am 8.4 5.7 7.3 93 0.5 SSW 11 17 6 9 1028.2 1028.6 0.0
22/07:00am 8.4 5.3 7.3 93 0.5 SSW 13 20 7 11 1027.9 1028.2 0.0
22/06:30am 8.4 4.9 7.3 93 0.5 SSW 15 19 8 10 1027.6 1027.9 0.0
22/06:00am 8.5 5.8 7.3 92 0.6 SSW 11 20 6 11 1027.4 1027.7 0.0
22/05:30am 8.3 5.2 7.2 93 0.5 SSW 13 17 7 9 1027.2 1027.5 0.0
22/05:00am 8.5 5.5 7.6 94 0.4 SSW 13 19 7 10 1027.0 1027.3 0.0
22/04:30am 8.4 5.7 7.5 94 0.4 SW 11 17 6 9 1027.1 1027.4 0.0
22/04:00am 8.2 5.4 7.0 92 0.6 SW 11 15 6 8 1027.0 1027.3 0.0
22/03:30am 8.7 6.0 7.3 91 0.7 WSW 11 17 6 9 1027.0 1027.3 0.0
22/03:00am 8.7 6.4 7.5 92 0.6 SW 9 17 5 9 1027.2 1027.5 0.0
22/02:30am 9.1 5.7 7.7 91 0.7 SW 15 24 8 13 1027.5 1027.8 0.0
22/02:00am 9.3 6.7 7.6 89 0.8 WSW 11 22 6 12 1027.8 1028.1 0.0
22/01:30am 9.7 5.9 7.5 86 1.1 WSW 17 26 9 14 1027.9 1028.2 0.0
22/01:00am 9.6 6.7 8.0 90 0.8 WSW 13 22 7 12 1027.9 1028.2 0.0
22/12:30am 9.2 6.3 8.3 94 0.4 W 13 20 7 11 1027.8 1028.1 0.0
22/12:00am 9.0 5.7 8.1 94 0.4 W 15 24 8 13 1027.9 1028.2 0.0
 
Date/Time
CST
Temp
°C
App
Temp
°C
Dew
Point
°C
Rel
Hum
%
Delta-T
°C
Wind Press
QNH
hPa
Press
MSL
hPa
Rain since
9am
mm
Dir  Spd
km/h
Gust
km/h
Spd
kts
Gust
kts
21/11:30pm 9.2 5.2 8.1 93 0.5 W 19 28 10 15 1027.8 1028.1 0.0
21/11:00pm 9.7 5.9 9.2 97 0.3 WSW 19 32 10 17 1028.1 1028.4 0.0
21/10:30pm 10.1 6.7 9.3 95 0.4 W 17 26 9 14 1028.3 1028.7 0.0
21/10:00pm 10.1 6.3 9.2 94 0.5 W 19 28 10 15 1028.4 1028.8 0.0
21/09:30pm 10.3 6.9 9.1 92 0.6 WSW 17 26 9 14 1028.5 1028.9 0.0
21/09:00pm 10.3 6.5 9.1 92 0.6 W 19 28 10 15 1028.3 1028.7 0.0
21/08:30pm 10.4 6.6 9.2 92 0.6 W 19 30 10 16 1028.1 1028.4 0.0
21/08:00pm 10.2 6.4 9.1 93 0.6 W 19 30 10 16 1027.9 1028.2 0.0
21/07:30pm 10.3 6.5 9.2 93 0.6 W 19 28 10 15 1027.7 1028.0 0.0
21/07:00pm 10.8 7.6 9.9 94 0.5 W 17 28 9 15 1027.8 1028.1 0.0
21/06:30pm 11.2 8.9 10.6 96 0.3 W 13 20 7 11 1027.7 1028.0 0.0
21/06:00pm 11.2 9.3 10.4 95 0.4 W 11 15 6 8 1027.7 1028.0 0.0
21/05:30pm 11.6 9.7 10.5 93 0.6 W 11 17 6 9 1027.3 1027.6 0.0
21/05:00pm 12.3 9.6 10.5 89 0.9 W 15 24 8 13 1027.1 1027.4 0.0
21/04:30pm 13.7 10.9 11.2 85 1.3 W 17 22 9 12 1027.0 1027.3 0.0
21/04:00pm 14.2 11.4 11.4 83 1.5 W 17 24 9 13 1027.1 1027.4 0.0
21/03:30pm 14.1 10.9 11.1 82 1.6 W 19 30 10 16 1027.0 1027.3 0.0
21/03:00pm 14.3 11.3 11.8 85 1.4 W 19 30 10 16 1027.3 1027.6 0.0
21/02:30pm 14.1 10.7 11.1 82 1.6 W 20 32 11 17 1027.2 1027.5 0.0
21/02:00pm 14.3 10.7 11.8 85 1.4 W 22 35 12 19 1027.3 1027.6 0.0
21/01:30pm 13.6 10.4 11.3 86 1.2 W 19 28 10 15 1027.3 1027.6 0.0
21/01:00pm 13.6 10.4 11.3 86 1.2 W 19 32 10 17 1027.6 1027.9 0.0
21/12:30pm 13.5 10.3 11.2 86 1.2 W 19 28 10 15 1027.7 1028.0 0.0
21/12:00pm 12.9 9.6 10.8 87 1.1 WSW 19 33 10 18 1028.1 1028.4 0.0
21/11:30am 12.2 9.3 11.1 93 0.6 W 17 28 9 15 1028.4 1028.8 0.0
21/11:00am 11.6 8.3 10.8 95 0.4 W 19 26 10 14 1028.7 1029.1 0.0
21/10:30am 11.6 8.2 10.7 94 0.5 WSW 19 32 10 17 1028.6 1029.0 0.0
21/10:00am 11.4 8.0 10.6 95 0.4 W 19 33 10 18 1028.7 1029.1 0.0
21/09:30am 11.6 8.1 11.0 96 0.3 W 20 30 11 16 1028.5 1028.9 0.0
21/09:00am 11.0 7.4 10.4 96 0.3 WSW 20 33 11 18 1028.4 1028.8 0.0
21/08:30am 10.9 7.4 10.1 95 0.4 W 19 28 10 15 1028.3 1028.7 0.0
21/08:00am 10.5 6.9 9.9 96 0.3 WSW 19 28 10 15 1028.2 1028.6 0.0
21/07:30am 10.6 6.8 9.7 94 0.5 W 20 28 11 15 1027.8 1028.1 0.0
21/07:00am 10.5 6.9 9.7 95 0.4 W 19 30 10 16 1027.5 1027.8 0.0
21/06:30am 10.4 6.2 9.6 95 0.4 W 22 37 12 20 1027.1 1027.4 0.0
21/06:00am 10.4 6.2 9.8 96 0.3 W 22 35 12 19 1027.1 1027.4 0.0
21/05:30am 10.4 6.2 9.8 96 0.3 W 22 32 12 17 1026.8 1027.1 0.0
21/05:00am 10.4 6.5 9.6 95 0.4 W 20 33 11 18 1026.6 1026.9 0.0
21/04:30am 10.5 6.3 9.7 95 0.4 W 22 33 12 18 1026.7 1027.0 0.0
21/04:00am 10.5 6.7 9.9 96 0.3 W 20 32 11 17 1026.8 1027.1 0.0
21/03:30am 10.5 7.3 9.9 96 0.3 W 17 28 9 15 1027.2 1027.5 0.0
21/03:00am 10.4 6.6 9.8 96 0.3 W 20 33 11 18 1027.4 1027.7 0.0
21/02:30am 10.4 6.5 9.6 95 0.4 W 20 32 11 17 1027.7 1028.0 0.0
21/02:00am 10.4 6.1 9.3 93 0.6 W 22 32 12 17 1027.8 1028.1 0.0
21/01:30am 10.3 6.3 9.2 93 0.6 W 20 32 11 17 1027.9 1028.2 0.0
21/01:00am 10.2 6.2 9.1 93 0.6 W 20 28 11 15 1028.0 1028.3 0.0
21/12:30am 10.2 6.4 9.1 93 0.6 WNW 19 28 10 15 1028.2 1028.6 0.0
21/12:00am 10.1 5.7 8.9 92 0.6 W 22 32 12 17 1028.4 1028.8 0.0
 
Date/Time
CST
Temp
°C
App
Temp
°C
Dew
Point
°C
Rel
Hum
%
Delta-T
°C
Wind Press
QNH
hPa
Press
MSL
hPa
Rain since
9am
mm
Dir  Spd
km/h
Gust
km/h
Spd
kts
Gust
kts
20/11:30pm 10.2 6.2 9.0 92 0.6 W 20 33 11 18 1028.4 1028.8 0.0
20/11:00pm 10.2 5.4 8.8 91 0.7 W 24 39 13 21 1028.6 1029.0 0.0
20/10:30pm 9.6 5.7 8.5 93 0.5 WNW 19 26 10 14 1028.8 1029.2 0.0
20/10:00pm 9.5 5.5 8.3 92 0.6 WNW 19 24 10 13 1028.9 1029.3 0.0
20/09:30pm 9.7 5.5 8.1 90 0.8 WNW 20 28 11 15 1028.8 1029.2 0.0
20/09:00pm 10.0 5.8 8.1 88 0.9 WNW 20 32 11 17 1028.8 1029.2 0.0
20/08:30pm 10.2 6.0 8.3 88 0.9 WNW 20 30 11 16 1029.0 1029.4 0.0
20/08:00pm 10.2 5.7 8.6 90 0.8 WNW 22 33 12 18 1028.9 1029.3 0.0
20/07:30pm 10.4 6.6 9.0 91 0.7 W 19 30 10 16 1028.8 1029.2 0.0
20/07:00pm 10.4 6.5 9.5 94 0.5 WNW 20 32 11 17 1028.8 1029.2 0.0
20/06:30pm 10.4 5.8 9.8 96 0.3 W 24 39 13 21 1028.6 1029.0 0.0
20/06:00pm 10.4 6.6 9.9 97 0.3 WNW 20 37 11 20 1028.5 1028.9 0.0
20/05:30pm 10.2 6.0 9.6 96 0.3 WNW 22 35 12 19 1028.4 1028.8 0.0
20/05:00pm 10.2 5.1 9.3 94 0.5 WNW 26 43 14 23 1028.4 1028.8 0.0
20/04:30pm 10.5 6.0 9.9 96 0.3 WNW 24 37 13 20 1028.4 1028.8 0.0
20/04:00pm 10.5 5.9 9.7 95 0.4 WNW 24 35 13 19 1028.4 1028.8 0.0
20/03:30pm 11.1 6.1 9.4 89 0.9 WNW 26 43 14 23 1028.4 1028.8 0.0
20/03:00pm 11.1 5.6 9.2 88 1.0 WNW 28 39 15 21 1028.6 1029.0 0.0
20/02:30pm 11.1 6.0 9.2 88 1.0 WNW 26 39 14 21 1028.6 1029.0 0.0
20/02:00pm 10.9 4.7 9.2 89 0.9 WNW 32 50 17 27 1028.6 1029.0 0.0
20/01:30pm 11.1 4.7 8.7 85 1.2 WNW 32 56 17 30 1028.9 1029.3 0.0
20/01:00pm 11.4 5.5 9.0 85 1.2 WNW 30 50 16 27 1029.2 1029.6 0.0
20/12:39pm 11.5 5.9 8.9 84 1.3 WNW 28 46 15 25 1029.4 1029.8 0.0
20/12:30pm 11.1 4.5 8.7 85 1.2 WNW 33 48 18 26 1029.4 1029.8 0.0
20/12:24pm 11.2 5.6 8.6 84 1.3 WNW 28 48 15 26 1029.5 1029.9 0.0
20/12:00pm 11.3 5.8 9.0 86 1.2 WNW 28 44 15 24 1029.9 1030.2 0.0
20/11:30am 11.4 5.8 8.6 83 1.4 WNW 28 43 15 23 1030.0 1030.3 0.0
20/11:00am 11.1 6.0 9.2 88 1.0 WNW 26 39 14 21 1030.3 1030.6 0.0
20/10:30am 11.1 6.3 8.7 85 1.2 WNW 24 37 13 20 1030.3 1030.6 0.0
20/10:00am 11.2 5.6 8.8 85 1.2 WNW 28 39 15 21 1030.2 1030.5 0.0
20/09:30am 10.9 6.0 8.3 84 1.3 WNW 24 43 13 23 1030.2 1030.5 0.0
20/09:00am 10.2 5.6 8.3 88 0.9 WNW 22 32 12 17 1030.2 1030.5 0.6
20/08:30am 9.9 5.3 8.3 90 0.8 W 22 33 12 18 1030.0 1030.3 0.6
20/08:00am 9.2 4.9 8.0 92 0.6 W 20 32 11 17 1029.7 1030.0 0.6
20/07:30am 8.8 5.9 8.2 96 0.3 WNW 13 20 7 11 1029.4 1029.8 0.6
20/07:00am 8.5 5.5 7.9 96 0.3 WNW 13 22 7 12 1029.3 1029.7 0.6
20/06:30am 7.9 5.2 7.5 97 0.2 WNW 11 19 6 10 1029.1 1029.5 0.6
20/06:00am 7.9 4.5 7.5 97 0.2 WNW 15 24 8 13 1028.9 1029.3 0.4
20/05:30am 8.1 5.1 7.7 97 0.2 WNW 13 20 7 11 1028.8 1029.2 0.4
20/05:00am 8.6 5.3 8.0 96 0.3 WNW 15 24 8 13 1028.8 1029.2 0.4
20/04:30am 8.2 4.8 7.6 96 0.3 WNW 15 20 8 11 1028.9 1029.3 0.4
20/04:00am 8.1 5.0 7.2 94 0.4 WNW 13 19 7 10 1029.0 1029.4 0.2
20/03:30am 8.2 4.6 6.8 91 0.7 WNW 15 24 8 13 1029.0 1029.4 0.2
20/03:00am 8.0 4.7 6.6 91 0.7 WNW 13 24 7 13 1029.3 1029.7 0.2
20/02:30am 8.1 4.0 6.4 89 0.8 WNW 17 24 9 13 1029.7 1030.0 0.2
20/02:00am 8.3 4.6 6.4 88 0.9 W 15 22 8 12 1030.1 1030.4 0.2
20/01:30am 7.6 3.9 6.2 91 0.6 WNW 15 22 8 12 1030.2 1030.5 0.2
20/01:00am 7.2 3.8 6.1 93 0.5 WNW 13 19 7 10 1030.2 1030.5 0.2
20/12:30am 7.4 4.1 6.5 94 0.4 W 13 22 7 12 1030.2 1030.5 0.2
20/12:00am 7.7 4.1 6.8 94 0.4 W 15 20 8 11 1030.3 1030.6 0.2
 
Date/Time
CST
Temp
°C
App
Temp
°C
Dew
Point
°C
Rel
Hum
%
Delta-T
°C
Wind Press
QNH
hPa
Press
MSL
hPa
Rain since
9am
mm
Dir  Spd
km/h
Gust
km/h
Spd
kts
Gust
kts
19/11:30pm 7.6 4.8 7.0 96 0.3 W 11 19 6 10 1030.5 1030.8 0.2
19/11:00pm 7.1 4.2 6.7 97 0.2 WNW 11 15 6 8 1030.5 1030.8 0.2
19/10:30pm 6.8 3.8 6.2 96 0.3 WNW 11 15 6 8 1030.6 1030.9 0.2
19/10:00pm 6.8 3.8 6.2 96 0.3 WNW 11 15 6 8 1030.5 1030.8 0.2

Other formats

Comma delimited format used in spreadsheet applications
http://www.bom.gov.au/fwo/IDS60801/IDS60801.94811.axf

JavaScript Object Notation format (JSON) in row-major order
http://www.bom.gov.au/fwo/IDS60801/IDS60801.94811.json

Data quality

Most of these data are generated automatically and are frequently updated. Quality checks on data are not normally performed. It is possible for incorrect values to appear. Refer to information at About Latest Weather Observations and please check the disclaimer before using these data.